Flight Number: EUR2442 Duration: 6:00
Departure: Dakar Int'l Airport (GOOY) at 08:00 Distance: 2481 Nm
Arrival: Munich Int'l (EDDM) at 14:00 Equipment: B777

Weather Information
Dakar / Yoff, Senegal (GOOY) 14-44N 017-30W 24M May 20, 2018 - 09:00 AM EDT / 2018.05.20 1300 UTC
Wind: from the NNW (340 degrees) at 16 MPH (14 KT):0
Visibility: greater than 7 mile(s):0
Sky conditions: mostly clear Temperature: 75 F (24 C) Dew Point: 66 F (19 C) Relative Humidity: 73% Pressure (altimeter): 29.91 in. Hg (1013 hPa)
ob: GOOY 201300Z 34014KT 9999 FEW010 24/19 Q1013 cycle: 13
Sunrise: 06:43 Sunset: 19:29 (UTC)

Munchen, Germany (EDDM) 48-21N 011-47E May 20, 2018 - 09:50 AM EDT / 2018.05.20 1350 UTC
Wind: from the E (080 degrees) at 16 MPH (14 KT) (direction variable):0
Visibility: greater than 7 mile(s):0 Temperature: 69 F (21 C) Dew Point: 46 F (8 C) Relative Humidity: 43% Pressure (altimeter): 30.06 in. Hg (1018 hPa)
ob: EDDM 201350Z 08014KT 040V110 CAVOK 21/08 Q1018 NOSIG cycle: 14
Sunrise: 03:30 Sunset: 18:48 (UTC)

TAF:2018/05/20 12:27 TAF EDDM 201100Z 2012/2118 09015G25KT 9999 SCT040 BECMG 2017/2020 07008KT PROB30 TEMPO 2114/2118 SHRA SCT050TCU

Previous Pireps for this route
Date Aircraft Flight time Fuel used Landing rate On time
2016-03-10B77706.11109136-84Yes
2016-04-10B77705.05106121-224Yes
(pireps marked green are flown by you)

Route map